Time;durP1;ratioP1;P1;durP2;ratioP2;P2;SDS_P1;SDS_P2;PMS_P1;PMS_P2;Temp;Humidity;BMP_temperature;BMP_pressure;BME280_temperature;BME280_humidity;BME280_pressure;Samples;Min_cycle;Max_cycle;Signal;HPM_P1;HPM_P2
2023/04/19 00:01:34;;;;;;;12.63;5.03;;;;;;;8.87;51.44;100594.76;1657325;85;21375;-58
2023/04/19 00:04:43;;;;;;;13.90;5.08;;;;;;;8.86;51.50;100594.39;1658033;85;21404;-58
2023/04/19 00:07:50;;;;;;;9.53;4.42;;;;;;;8.86;51.57;100582.63;1682648;84;21211;-57
2023/04/19 00:10:57;;;;;;;11.25;4.55;;;;;;;8.84;51.64;100581.93;1653807;86;21271;-57
2023/04/19 00:14:03;;;;;;;7.90;4.50;;;;;;;8.81;51.65;100580.89;1670641;84;21164;-58
2023/04/19 00:17:10;;;;;;;12.68;4.10;;;;;;;8.77;51.70;100577.61;1665623;85;21350;-58
2023/04/19 00:20:17;;;;;;;9.93;4.28;;;;;;;8.78;51.80;100573.02;1682863;85;21772;-58
2023/04/19 00:23:24;;;;;;;7.53;4.17;;;;;;;8.77;51.85;100578.11;1664921;85;21231;-58
2023/04/19 00:26:30;;;;;;;9.60;4.70;;;;;;;8.74;51.89;100579.80;1682764;84;21377;-58
2023/04/19 00:29:36;;;;;;;7.67;4.85;;;;;;;8.72;51.97;100572.30;1668229;82;21675;-57
2023/04/19 00:32:43;;;;;;;10.35;3.72;;;;;;;8.69;51.98;100575.32;1679772;85;21759;-57
2023/04/19 00:35:50;;;;;;;11.10;4.75;;;;;;;8.65;51.97;100569.35;1680854;85;21262;-57
2023/04/19 00:38:56;;;;;;;11.50;4.53;;;;;;;8.62;52.04;100565.58;1681156;85;21365;-57
2023/04/19 00:42:02;;;;;;;11.95;4.17;;;;;;;8.58;52.08;100566.02;1695924;84;21365;-57
2023/04/19 00:45:12;;;;;;;12.20;3.98;;;;;;;8.56;52.17;100565.35;1695617;84;21226;-58
2023/04/19 00:48:19;;;;;;;16.60;4.55;;;;;;;8.53;52.23;100571.12;1695389;84;21329;-57
2023/04/19 00:51:27;;;;;;;14.78;4.25;;;;;;;8.50;52.28;100565.99;1695654;84;21380;-59
2023/04/19 00:54:34;;;;;;;7.80;3.95;;;;;;;8.46;52.35;100559.13;1695392;84;21195;-57
2023/04/19 00:57:39;;;;;;;15.23;4.67;;;;;;;8.42;52.42;100553.65;1695379;84;21315;-58
2023/04/19 01:00:45;;;;;;;16.05;4.92;;;;;;;8.39;52.51;100562.98;1695573;84;21203;-58
2023/04/19 01:03:52;;;;;;;9.38;4.40;;;;;;;8.36;52.54;100554.25;1695541;84;21215;-57
2023/04/19 01:07:00;;;;;;;11.68;4.50;;;;;;;8.33;52.59;100550.48;1695486;84;21440;-58
2023/04/19 01:10:07;;;;;;;15.10;4.72;;;;;;;8.28;52.59;100541.41;1695629;84;21342;-58
2023/04/19 01:13:13;;;;;;;10.80;3.80;;;;;;;8.25;52.69;100539.00;1694967;84;21227;-57
2023/04/19 01:16:20;;;;;;;12.37;4.17;;;;;;;8.22;52.79;100542.02;1695594;84;21377;-58
2023/04/19 01:19:25;;;;;;;6.53;4.00;;;;;;;8.20;52.84;100540.44;1695533;84;21215;-57
2023/04/19 01:22:33;;;;;;;10.68;3.80;;;;;;;8.20;52.98;100537.71;1695549;84;21239;-57
2023/04/19 01:25:39;;;;;;;9.98;3.95;;;;;;;8.19;53.06;100534.64;1695491;84;21251;-57
2023/04/19 01:28:46;;;;;;;12.35;3.87;;;;;;;8.17;53.12;100527.12;1695447;84;21330;-58
2023/04/19 01:31:53;;;;;;;12.78;4.42;;;;;;;8.17;53.18;100532.08;1706559;83;21216;-57
2023/04/19 01:35:00;;;;;;;16.37;4.28;;;;;;;8.14;53.23;100527.44;1706933;84;21234;-57
2023/04/19 01:38:05;;;;;;;12.47;4.10;;;;;;;8.12;53.29;100534.41;1706837;84;21211;-57
2023/04/19 01:41:11;;;;;;;12.33;4.70;;;;;;;8.10;53.38;100532.37;1706972;84;21348;-57
2023/04/19 01:44:18;;;;;;;12.88;4.70;;;;;;;8.11;53.46;100537.30;1706788;84;21847;-57
2023/04/19 01:47:23;;;;;;;16.42;4.58;;;;;;;8.09;53.52;100531.13;1706813;84;21286;-57
2023/04/19 01:50:29;;;;;;;11.95;4.00;;;;;;;8.08;53.57;100533.52;1706760;84;21226;-57
2023/04/19 01:53:36;;;;;;;10.32;3.80;;;;;;;8.06;53.62;100535.54;1706899;84;21274;-58
2023/04/19 01:56:42;;;;;;;16.50;4.20;;;;;;;8.04;53.65;100533.50;1706850;84;21282;-57
2023/04/19 01:59:50;;;;;;;14.68;4.30;;;;;;;8.02;53.70;100541.84;1707042;84;21424;-57
2023/04/19 02:02:59;;;;;;;13.88;4.60;;;;;;;8.01;53.77;100540.10;1706871;83;21305;-57
2023/04/19 02:06:07;;;;;;;11.55;3.62;;;;;;;8.00;53.84;100534.31;1706978;83;21199;-57
2023/04/19 02:09:15;;;;;;;10.82;4.40;;;;;;;8.01;53.94;100525.64;1706977;84;21379;-57
2023/04/19 02:12:24;;;;;;;17.55;4.30;;;;;;;8.02;54.02;100527.34;1706912;84;21266;-57
2023/04/19 02:15:30;;;;;;;12.53;4.10;;;;;;;8.01;54.12;100520.19;1707042;84;21356;-57
2023/04/19 02:18:40;;;;;;;12.37;4.10;;;;;;;8.02;54.18;100524.61;1707029;84;21254;-58
2023/04/19 02:21:44;;;;;;;14.78;4.00;;;;;;;8.02;54.22;100513.70;1707034;84;21420;-58
2023/04/19 02:24:51;;;;;;;15.23;4.45;;;;;;;8.01;54.29;100512.01;1706966;84;21372;-57
2023/04/19 02:27:58;;;;;;;11.48;4.05;;;;;;;8.00;54.35;100510.27;1706823;84;21360;-57
2023/04/19 02:31:05;;;;;;;10.40;3.95;;;;;;;7.98;54.39;100503.62;1703957;82;21223;-58
2023/04/19 02:34:11;;;;;;;15.58;3.85;;;;;;;7.97;54.46;100510.59;1702658;83;21396;-57
2023/04/19 02:37:17;;;;;;;14.58;4.28;;;;;;;7.95;54.48;100504.42;1693095;84;21270;-57
2023/04/19 02:40:24;;;;;;;8.73;4.20;;;;;;;7.93;54.53;100511.40;1700089;84;21282;-58
2023/04/19 02:43:29;;;;;;;14.10;5.00;;;;;;;7.93;54.60;100512.77;1701798;84;21199;-58
2023/04/19 02:46:36;;;;;;;16.15;4.12;;;;;;;7.91;54.63;100508.00;1703020;83;21238;-57
2023/04/19 02:49:41;;;;;;;14.25;4.12;;;;;;;7.89;54.72;100507.78;1698718;84;21203;-58
2023/04/19 02:52:49;;;;;;;11.25;4.80;;;;;;;7.89;54.81;100514.10;1702969;84;21413;-58
2023/04/19 02:55:55;;;;;;;12.50;4.45;;;;;;;7.90;54.91;100514.44;1737878;82;21220;-57
2023/04/19 02:59:01;;;;;;;21.02;4.25;;;;;;;7.91;55.03;100506.64;1699068;84;21207;-58
2023/04/19 03:02:07;;;;;;;17.67;5.17;;;;;;;7.95;55.07;100513.97;1703058;83;21230;-57
2023/04/19 03:05:14;;;;;;;16.25;4.33;;;;;;;7.97;55.14;100503.77;1703067;83;21207;-57
2023/04/19 03:08:20;;;;;;;10.55;4.12;;;;;;;8.02;55.23;100509.13;1702377;84;21239;-58
2023/04/19 03:11:27;;;;;;;13.28;4.25;;;;;;;8.06;55.29;100511.00;1703059;84;21420;-57
2023/04/19 03:14:36;;;;;;;12.13;4.20;;;;;;;8.11;55.34;100504.58;1703401;83;21266;-58
2023/04/19 03:17:41;;;;;;;19.10;4.78;;;;;;;8.16;55.41;100506.33;1702906;84;21732;-58
2023/04/19 03:20:49;;;;;;;16.93;4.47;;;;;;;8.22;55.45;100504.33;1702830;84;21226;-58
2023/04/19 03:23:57;;;;;;;13.93;4.45;;;;;;;8.29;55.49;100497.28;1703513;83;21321;-58
2023/04/19 03:27:06;;;;;;;13.40;4.47;;;;;;;8.36;55.56;100503.79;1702803;84;21194;-58
2023/04/19 03:30:17;;;;;;;17.02;4.60;;;;;;;8.43;55.58;100502.16;1737410;82;21189;-58
2023/04/19 03:33:25;;;;;;;12.05;4.20;;;;;;;8.51;55.59;100502.22;1685036;82;21267;-58
2023/04/19 03:36:29;;;;;;;20.08;4.83;;;;;;;8.59;55.64;100503.11;1698544;83;21231;-58
2023/04/19 03:39:35;;;;;;;17.10;5.20;;;;;;;8.66;55.70;100493.78;1699532;83;21353;-59
2023/04/19 03:42:47;;;;;;;14.38;4.30;;;;;;;8.75;55.71;100499.13;1698389;84;21882;-58
2023/04/19 03:45:55;;;;;;;18.00;4.60;;;;;;;8.81;55.71;100497.14;1699176;83;21519;-59
2023/04/19 03:49:01;;;;;;;10.40;4.50;;;;;;;8.85;55.66;100495.78;1698556;83;21329;-58
2023/04/19 03:52:08;;;;;;;8.68;4.40;;;;;;;8.88;55.67;100498.19;1698519;84;21219;-58
2023/04/19 03:55:16;;;;;;;15.45;5.20;;;;;;;8.93;55.72;100493.09;1691600;83;21251;-58
2023/04/19 03:58:24;;;;;;;27.45;8.98;;;;;;;8.96;55.69;100494.13;1699048;84;21231;-59
2023/04/19 04:01:31;;;;;;;28.38;10.20;;;;;;;9.00;55.72;100494.17;1698702;84;21373;-59
2023/04/19 04:04:38;;;;;;;20.35;7.50;;;;;;;9.04;55.79;100490.08;1678978;85;21223;-59
2023/04/19 04:07:46;;;;;;;15.80;6.12;;;;;;;9.14;55.92;100494.05;1678827;85;21258;-58
2023/04/19 04:10:53;;;;;;;16.52;5.40;;;;;;;9.22;55.99;100488.63;1679034;85;21246;-58
2023/04/19 04:13:59;;;;;;;15.50;5.20;;;;;;;9.29;55.95;100485.59;1699657;84;21202;-59
2023/04/19 04:17:05;;;;;;;18.17;5.15;;;;;;;9.34;55.97;100484.56;1666330;85;21843;-57
2023/04/19 04:20:12;;;;;;;19.35;4.58;;;;;;;9.38;56.00;100483.23;1698264;84;21286;-58
2023/04/19 04:23:21;;;;;;;20.75;5.83;;;;;;;9.42;56.05;100476.92;1676846;85;21379;-58
2023/04/19 04:26:32;;;;;;;26.00;4.95;;;;;;;9.44;56.06;100475.72;1698546;84;21195;-58
2023/04/19 04:29:40;;;;;;;29.18;5.22;;;;;;;9.54;56.20;100467.38;1698760;83;21179;-58
2023/04/19 04:32:50;;;;;;;20.88;5.47;;;;;;;9.70;56.28;100468.78;1698513;83;21362;-60
2023/04/19 04:35:56;;;;;;;21.35;4.65;;;;;;;9.84;56.32;100468.98;1703469;83;21207;-58
2023/04/19 04:39:05;;;;;;;23.92;4.62;;;;;;;9.97;56.34;100465.21;1703528;83;21381;-58
2023/04/19 04:42:12;;;;;;;11.88;4.50;;;;;;;10.10;56.32;100465.60;1704277;83;21574;-58
2023/04/19 04:45:18;;;;;;;16.37;4.80;;;;;;;10.21;56.39;100463.06;1702970;83;21183;-58
2023/04/19 04:48:23;;;;;;;41.25;15.20;;;;;;;10.34;56.45;100475.17;1739191;81;21742;-59
2023/04/19 04:51:28;;;;;;;19.07;5.87;;;;;;;10.49;56.49;100463.88;1680228;85;21760;-59
2023/04/19 04:54:35;;;;;;;20.70;4.78;;;;;;;10.65;56.51;100470.34;1684738;84;21743;-59
2023/04/19 04:57:46;;;;;;;29.82;6.03;;;;;;;10.79;56.51;100474.59;1700142;82;21569;-59
2023/04/19 05:01:10;;;;;;;18.37;4.83;;;;;;;10.91;56.46;100475.09;1683065;83;21269;-57
2023/04/19 05:04:16;;;;;;;22.32;5.72;;;;;;;11.01;56.47;100477.09;1679016;83;21906;-58
2023/04/19 05:07:21;;;;;;;44.53;12.07;;;;;;;11.11;56.46;100476.38;1679938;84;21236;-58
2023/04/19 05:10:28;;;;;;;30.85;6.17;;;;;;;11.19;56.51;100485.94;1684237;83;21222;-58
2023/04/19 05:13:33;;;;;;;25.12;6.95;;;;;;;11.29;56.53;100481.11;1678759;84;21788;-58
2023/04/19 05:16:39;;;;;;;21.00;5.28;;;;;;;11.38;56.48;100476.78;1669963;85;21223;-57
2023/04/19 05:19:48;;;;;;;27.73;5.92;;;;;;;11.48;56.46;100473.82;1679004;84;21213;-56
2023/04/19 05:22:54;;;;;;;32.93;5.10;;;;;;;11.54;56.44;100479.41;1739060;82;21241;-56
2023/04/19 05:26:01;;;;;;;27.35;6.62;;;;;;;11.63;56.49;100473.41;1699507;84;21274;-57
2023/04/19 05:29:02;;;;;;;33.83;5.25;;;;;;;11.73;56.52;100468.56;1677613;83;21206;-56
2023/04/19 05:32:11;;;;;;;29.05;5.15;;;;;;;11.84;56.52;100460.75;1672684;84;21229;-57
2023/04/19 05:35:22;;;;;;;29.50;5.20;;;;;;;11.97;56.51;100465.66;1678848;82;21385;-55
2023/04/19 05:38:27;;;;;;;27.77;5.30;;;;;;;12.10;56.49;100474.11;1649444;86;21222;-55
2023/04/19 05:41:34;;;;;;;25.37;5.65;;;;;;;12.20;56.49;100473.34;1684080;83;21345;-55
2023/04/19 05:44:40;;;;;;;35.45;5.87;;;;;;;12.27;56.38;100470.22;1656843;86;22118;-56
2023/04/19 05:47:46;;;;;;;34.55;6.20;;;;;;;12.32;56.32;100471.03;1642422;87;22072;-55
2023/04/19 05:51:03;;;;;;;33.78;6.47;;;;;;;12.39;56.35;100465.98;1655386;85;21752;-55
2023/04/19 05:54:20;;;;;;;38.60;6.03;;;;;;;12.56;56.43;100472.19;1689203;84;21298;-58
2023/04/19 05:57:26;;;;;;;36.58;5.80;;;;;;;12.86;56.56;100473.94;1685266;83;21219;-55
2023/04/19 06:00:32;;;;;;;48.38;8.63;;;;;;;13.12;56.49;100476.58;1694899;82;21207;-56
2023/04/19 06:03:40;;;;;;;38.98;8.78;;;;;;;13.36;56.39;100479.03;1699902;84;21226;-55
2023/04/19 06:06:48;;;;;;;47.17;8.43;;;;;;;13.57;56.34;100480.98;1696069;84;21233;-54
2023/04/19 06:09:54;;;;;;;50.90;7.72;;;;;;;13.75;56.20;100475.90;1699458;83;21197;-55
2023/04/19 06:13:02;;;;;;;51.60;9.10;;;;;;;13.86;56.00;100484.19;1683164;83;21278;-55
2023/04/19 06:16:10;;;;;;;33.38;7.78;;;;;;;13.97;55.97;100486.43;1680854;83;21244;-56
2023/04/19 06:19:09;;;;;;;36.93;8.18;;;;;;;14.07;55.83;100489.18;1681845;83;21239;-56
2023/04/19 06:22:04;;;;;;;41.83;7.05;;;;;;;14.10;55.67;100481.05;1650914;86;21255;-57
2023/04/19 06:24:51;;;;;;;31.42;8.33;;;;;;;14.10;55.62;100485.17;1690349;84;21215;-57
2023/04/19 06:27:45;;;;;;;35.80;7.40;;;;;;;14.12;55.61;100483.95;1685398;82;21390;-57
2023/04/19 06:30:33;;;;;;;34.33;6.80;;;;;;;14.17;55.62;100490.23;1658433;85;21625;-55
2023/04/19 06:33:25;;;;;;;30.05;6.45;;;;;;;14.17;55.49;100492.98;1651239;87;21236;-56
2023/04/19 06:36:31;;;;;;;34.38;6.58;;;;;;;14.07;55.30;100490.55;1667363;84;21243;-56
2023/04/19 06:39:37;;;;;;;40.00;6.37;;;;;;;14.01;55.40;100489.97;1689867;84;21729;-56
2023/04/19 06:42:47;;;;;;;30.97;6.70;;;;;;;14.00;55.42;100486.03;1696338;84;21278;-59
2023/04/19 06:45:53;;;;;;;40.63;7.47;;;;;;;13.98;55.43;100488.98;1695774;84;21720;-56
2023/04/19 06:49:00;;;;;;;32.73;5.78;;;;;;;13.98;55.42;100491.73;1688204;84;21825;-54
2023/04/19 06:52:06;;;;;;;41.90;7.55;;;;;;;14.02;55.50;100489.42;1682038;84;21589;-57
2023/04/19 06:55:12;;;;;;;35.50;6.00;;;;;;;14.05;55.43;100495.94;1681486;85;21205;-57
2023/04/19 06:58:19;;;;;;;40.17;7.05;;;;;;;14.05;55.48;100489.89;1670040;85;21219;-55
2023/04/19 07:01:25;;;;;;;35.13;6.22;;;;;;;14.03;55.41;100493.91;1681434;85;21858;-55
2023/04/19 07:04:33;;;;;;;35.90;6.53;;;;;;;14.06;55.48;100497.63;1678565;83;21313;-56
2023/04/19 07:07:40;;;;;;;45.17;8.03;;;;;;;14.08;55.48;100499.68;1667632;84;22125;-57
2023/04/19 07:10:47;;;;;;;39.42;6.12;;;;;;;14.09;55.43;100494.48;1668527;85;21237;-56
2023/04/19 07:13:53;;;;;;;40.67;8.05;;;;;;;14.09;55.51;100499.99;1668313;85;21243;-56
2023/04/19 07:16:59;;;;;;;42.75;5.45;;;;;;;14.10;55.48;100505.82;1669530;86;21363;-55
2023/04/19 07:20:05;;;;;;;40.43;7.80;;;;;;;14.09;55.49;100496.73;1670104;85;21238;-55
2023/04/19 07:23:12;;;;;;;43.02;7.78;;;;;;;13.98;55.32;100499.13;1672959;84;21214;-56
2023/04/19 07:26:18;;;;;;;35.15;7.15;;;;;;;14.01;55.54;100494.61;1690979;84;21345;-55
2023/04/19 07:29:24;;;;;;;51.05;13.50;;;;;;;14.13;55.66;100504.08;1665331;84;21241;-55
2023/04/19 07:32:30;;;;;;;43.38;9.20;;;;;;;14.29;55.74;100497.80;1703817;83;21220;-55
2023/04/19 07:35:36;;;;;;;43.75;7.20;;;;;;;14.41;55.70;100496.21;1681617;83;21260;-56
2023/04/19 07:38:42;;;;;;;40.65;8.43;;;;;;;14.46;55.54;100492.89;1718061;82;21221;-55
2023/04/19 07:41:49;;;;;;;44.38;7.03;;;;;;;14.57;55.68;100484.09;1714182;83;21238;-55
2023/04/19 07:44:54;;;;;;;50.25;6.90;;;;;;;14.71;55.64;100489.48;1682939;84;21850;-55
2023/04/19 07:48:02;;;;;;;35.98;6.42;;;;;;;14.76;55.49;100484.23;1708015;83;21256;-55
2023/04/19 07:51:19;;;;;;;36.98;6.22;;;;;;;14.82;55.46;100486.73;1710836;83;21365;-55
2023/04/19 07:54:26;;;;;;;31.75;4.72;;;;;;;14.95;55.57;100496.48;1680167;85;21369;-56
2023/04/19 07:57:32;;;;;;;30.23;4.95;;;;;;;15.11;55.57;100492.00;1679791;85;21258;-57
2023/04/19 08:00:40;;;;;;;40.50;6.30;;;;;;;15.19;55.55;100491.84;1709824;83;21304;-54
2023/04/19 08:03:47;;;;;;;34.03;5.70;;;;;;;15.34;55.56;100493.95;1683211;83;21854;-56
2023/04/19 08:06:54;;;;;;;39.53;5.35;;;;;;;15.52;55.56;100493.45;1674773;85;21266;-56
2023/04/19 08:10:00;;;;;;;43.30;6.80;;;;;;;15.74;55.57;100484.85;1665322;85;21230;-56
2023/04/19 08:13:08;;;;;;;34.92;6.35;;;;;;;15.89;55.40;100493.81;1658283;85;21791;-56
2023/04/19 08:16:15;;;;;;;33.28;5.28;;;;;;;15.86;55.01;100493.37;1675353;85;21775;-56
2023/04/19 08:19:23;;;;;;;91.20;29.23;;;;;;;15.85;55.00;100490.30;1652785;85;21300;-55
2023/04/19 08:22:30;;;;;;;31.93;5.92;;;;;;;15.87;54.99;100495.92;1640239;86;21244;-55
2023/04/19 08:25:38;;;;;;;37.65;5.67;;;;;;;15.92;54.98;100494.77;1658560;85;21318;-55
2023/04/19 08:28:44;;;;;;;40.35;5.87;;;;;;;15.94;54.97;100495.42;1679606;85;21227;-56
2023/04/19 08:31:51;;;;;;;27.35;4.80;;;;;;;16.05;55.00;100500.86;1697861;83;21243;-56
2023/04/19 08:34:57;;;;;;;41.90;6.30;;;;;;;16.13;54.85;100497.91;1687696;83;21263;-56
2023/04/19 08:38:03;;;;;;;33.95;5.30;;;;;;;16.13;54.75;100499.29;1694276;82;21366;-55
2023/04/19 08:41:12;;;;;;;33.78;6.62;;;;;;;16.17;54.66;100492.30;1693674;84;21784;-55
2023/04/19 08:44:20;;;;;;;40.67;6.25;;;;;;;16.24;54.71;100491.25;1693609;84;21934;-55
2023/04/19 08:47:27;;;;;;;29.92;5.35;;;;;;;16.23;54.54;100500.61;1671641;84;21814;-56
2023/04/19 08:50:34;;;;;;;29.27;5.08;;;;;;;16.28;54.62;100498.05;1659432;85;21739;-57
2023/04/19 08:53:46;;;;;;;43.65;7.30;;;;;;;16.41;54.64;100500.83;1667152;85;21286;-56
2023/04/19 08:56:53;;;;;;;29.15;4.92;;;;;;;16.56;54.55;100487.38;1644943;86;21223;-57
2023/04/19 09:00:00;;;;;;;33.45;6.28;;;;;;;16.68;54.43;100471.32;1651004;86;21242;-56
2023/04/19 09:03:10;;;;;;;32.78;6.17;;;;;;;16.75;54.37;100481.86;1661517;84;21238;-57
2023/04/19 09:06:17;;;;;;;26.55;6.67;;;;;;;16.82;54.29;100476.33;1682123;84;21214;-58
2023/04/19 09:09:32;;;;;;;28.62;5.60;;;;;;;16.97;54.37;100472.27;1693210;84;21275;-57
2023/04/19 09:12:41;;;;;;;30.17;5.92;;;;;;;17.15;54.29;100468.83;1733428;81;21346;-57
2023/04/19 09:15:48;;;;;;;28.67;5.40;;;;;;;17.17;54.09;100473.63;1732555;82;21213;-58
2023/04/19 09:19:04;;;;;;;36.38;6.22;;;;;;;17.19;54.02;100468.70;1719591;83;21230;-58
2023/04/19 09:22:20;;;;;;;27.22;4.90;;;;;;;17.22;54.01;100471.06;1659399;85;21627;-57
2023/04/19 09:25:34;;;;;;;29.80;4.53;;;;;;;17.25;53.80;100470.07;1654895;85;22048;-58
2023/04/19 09:28:41;;;;;;;27.07;4.45;;;;;;;17.28;53.82;100456.35;1652388;85;21236;-58
2023/04/19 09:31:46;;;;;;;28.90;4.70;;;;;;;17.34;53.86;100461.88;1664399;85;22094;-58
2023/04/19 09:35:03;;;;;;;47.90;11.05;;;;;;;17.50;53.92;100470.26;1694947;84;21214;-58
2023/04/19 09:38:09;;;;;;;27.62;4.97;;;;;;;17.59;53.80;100464.78;1659402;85;21221;-58
2023/04/19 09:41:16;;;;;;;33.78;4.42;;;;;;;17.64;53.62;100462.21;1658663;84;21224;-59
2023/04/19 09:44:22;;;;;;;23.65;4.17;;;;;;;17.67;53.58;100463.16;1664475;84;21764;-58
2023/04/19 09:47:35;;;;;;;27.42;4.42;;;;;;;17.76;53.60;100461.30;1679159;84;21230;-58
2023/04/19 09:50:46;;;;;;;25.05;4.28;;;;;;;17.77;53.33;100469.91;1695698;83;21774;-60
2023/04/19 09:53:55;;;;;;;27.62;4.53;;;;;;;17.81;53.40;100471.70;1678518;84;21252;-58
2023/04/19 09:57:04;;;;;;;23.50;3.95;;;;;;;17.91;53.37;100469.33;1696032;83;21412;-58
2023/04/19 10:00:12;;;;;;;30.68;6.10;;;;;;;18.01;53.28;100471.09;1696841;83;21231;-59
2023/04/19 10:03:17;;;;;;;20.37;5.42;;;;;;;18.03;53.07;100463.38;1695403;83;21281;-60
2023/04/19 10:06:26;;;;;;;22.98;4.25;;;;;;;18.07;53.05;100467.95;1694321;82;21229;-59
2023/04/19 10:09:35;;;;;;;24.52;3.62;;;;;;;18.08;52.85;100471.89;1693979;82;21733;-58
2023/04/19 10:12:42;;;;;;;23.60;4.00;;;;;;;18.15;52.92;100469.08;1741697;81;21826;-57
2023/04/19 10:15:49;;;;;;;26.60;5.80;;;;;;;18.22;52.93;100472.11;1707156;81;21209;-58
2023/04/19 10:18:57;;;;;;;27.50;4.87;;;;;;;18.25;52.73;100475.82;1682184;83;21221;-60
2023/04/19 10:22:05;;;;;;;24.20;3.70;;;;;;;18.28;52.66;100475.41;1736901;80;21208;-58
2023/04/19 10:25:20;;;;;;;27.27;3.95;;;;;;;18.32;52.67;100466.08;1729960;81;21799;-58
2023/04/19 10:28:26;;;;;;;34.30;5.17;;;;;;;18.31;52.50;100472.18;1713794;81;21198;-58
2023/04/19 10:31:33;;;;;;;23.32;3.80;;;;;;;18.25;52.45;100471.66;1685689;83;21236;-58
2023/04/19 10:34:46;;;;;;;28.23;4.08;;;;;;;18.21;52.35;100476.49;1685870;83;21231;-58
2023/04/19 10:38:20;;;;;;;23.10;4.65;;;;;;;18.15;52.21;100479.64;1678455;83;21228;-59
2023/04/19 10:41:26;;;;;;;20.25;3.85;;;;;;;18.11;52.19;100483.91;1636626;84;21732;-58
2023/04/19 10:44:32;;;;;;;23.38;5.17;;;;;;;18.07;52.12;100486.83;1650716;86;21816;-58
2023/04/19 10:47:52;;;;;;;30.10;5.10;;;;;;;18.05;52.09;100477.87;1660014;85;21228;-57
2023/04/19 10:51:21;;;;;;;30.12;4.55;;;;;;;17.99;51.98;100482.92;1670056;85;21575;-55
2023/04/19 10:54:37;;;;;;;33.42;4.92;;;;;;;17.98;52.02;100490.07;1641958;86;21882;-55
2023/04/19 10:58:09;;;;;;;31.48;4.72;;;;;;;17.98;51.93;100488.16;1641719;86;21244;-57
2023/04/19 11:01:44;;;;;;;27.65;5.35;;;;;;;17.96;51.94;100484.75;1653696;86;21217;-59
2023/04/19 11:05:02;;;;;;;38.13;5.20;;;;;;;18.06;52.05;100474.58;1636657;86;21285;-58
2023/04/19 11:08:12;;;;;;;31.82;4.97;;;;;;;18.28;52.12;100485.63;1653042;85;21239;-57
2023/04/19 11:11:18;;;;;;;28.57;4.60;;;;;;;18.40;51.91;100469.48;1633411;86;21229;-59
2023/04/19 11:14:23;;;;;;;37.65;6.03;;;;;;;18.46;51.81;100465.80;1636557;86;21240;-58
2023/04/19 11:17:31;;;;;;;30.12;5.60;;;;;;;18.57;51.81;100476.69;1628377;88;21256;-58
2023/04/19 11:20:37;;;;;;;35.10;5.00;;;;;;;18.54;51.51;100472.45;1676445;84;21237;-58
2023/04/19 11:23:48;;;;;;;27.30;5.10;;;;;;;18.53;51.49;100469.38;1650485;84;21229;-63
2023/04/19 11:26:54;;;;;;;24.32;4.30;;;;;;;18.54;51.42;100469.68;1674864;84;21842;-60
2023/04/19 11:30:12;;;;;;;24.35;4.65;;;;;;;18.51;51.19;100465.12;1676759;85;22197;-61
2023/04/19 11:33:24;;;;;;;31.97;5.25;;;;;;;18.41;51.11;100470.33;1637322;87;21265;-65
2023/04/19 11:36:35;;;;;;;24.35;4.80;;;;;;;18.47;51.25;100459.73;1642534;86;21974;-61
2023/04/19 11:39:41;;;;;;;28.90;4.80;;;;;;;18.56;51.21;100456.45;1653814;86;21233;-62
2023/04/19 11:42:47;;;;;;;28.85;4.55;;;;;;;18.75;51.20;100453.19;1684096;83;21559;-61
2023/04/19 11:45:54;;;;;;;53.87;8.35;;;;;;;18.99;51.18;100436.53;1678298;84;21204;-60
2023/04/19 11:48:59;;;;;;;26.70;4.28;;;;;;;19.24;51.10;100439.24;1693331;84;21315;-62
2023/04/19 11:52:07;;;;;;;38.70;5.90;;;;;;;19.56;51.11;100438.05;1693592;83;21266;-61
2023/04/19 11:55:26;;;;;;;36.80;4.95;;;;;;;19.77;50.96;100435.31;1686839;83;21206;-62
2023/04/19 11:58:36;;;;;;;29.00;4.45;;;;;;;19.98;50.77;100437.59;1674252;85;21221;-63
2023/04/19 12:01:43;;;;;;;40.58;5.50;;;;;;;20.11;50.51;100427.13;1695598;83;21228;-60
2023/04/19 12:04:49;;;;;;;38.85;4.55;;;;;;;20.23;50.40;100415.52;1689264;84;21257;-68
2023/04/19 12:08:10;;;;;;;28.92;5.42;;;;;;;20.28;50.10;100405.92;1674663;85;21290;-63
2023/04/19 12:11:21;;;;;;;27.82;4.80;;;;;;;20.15;49.76;100412.25;1658925;85;21736;-66
2023/04/19 12:14:28;;;;;;;32.98;5.62;;;;;;;20.12;49.80;100416.86;1675142;85;21215;-63
2023/04/19 12:17:34;;;;;;;35.38;5.17;;;;;;;20.24;49.81;100409.42;1677196;85;21286;-68
2023/04/19 12:20:45;;;;;;;31.07;4.35;;;;;;;20.31;49.63;100409.61;1677079;85;21211;-63
2023/04/19 12:23:51;;;;;;;37.60;4.75;;;;;;;20.32;49.47;100403.52;1678093;85;21210;-63
2023/04/19 12:27:02;;;;;;;28.80;5.33;;;;;;;20.44;49.45;100399.67;1678148;84;21580;-66
2023/04/19 12:30:09;;;;;;;33.92;4.55;;;;;;;20.53;49.25;100401.00;1670050;84;21235;-63
2023/04/19 12:33:17;;;;;;;35.80;4.62;;;;;;;20.63;49.04;100397.63;1659564;84;21234;-61
2023/04/19 12:36:27;;;;;;;38.78;4.60;;;;;;;20.67;49.02;100392.77;1676698;85;21295;-61
2023/04/19 12:39:32;;;;;;;33.88;4.97;;;;;;;20.85;49.04;100393.19;1685024;83;21229;-61
2023/04/19 12:42:39;;;;;;;25.60;3.95;;;;;;;20.95;48.73;100393.41;1655126;85;21229;-59
2023/04/19 12:45:49;;;;;;;23.15;4.00;;;;;;;21.04;48.57;100403.11;1673995;85;21218;-59
2023/04/19 12:48:56;;;;;;;23.20;4.70;;;;;;;21.15;48.48;100396.71;1678629;85;21610;-58
2023/04/19 12:52:03;;;;;;;32.33;7.15;;;;;;;21.12;48.09;100394.39;1686251;83;21295;-60
2023/04/19 12:55:10;;;;;;;20.27;3.67;;;;;;;21.06;47.93;100402.89;1696994;84;21711;-60
2023/04/19 12:58:16;;;;;;;25.90;3.62;;;;;;;20.96;47.70;100404.90;1680165;84;21599;-57
2023/04/19 13:01:22;;;;;;;20.23;3.62;;;;;;;20.62;47.25;100404.30;1705743;83;21586;-59
2023/04/19 13:04:30;;;;;;;27.70;4.08;;;;;;;20.29;47.20;100407.64;1706517;84;21281;-57
2023/04/19 13:07:36;;;;;;;28.57;4.65;;;;;;;20.06;47.22;100401.96;1706095;84;21370;-58
2023/04/19 13:10:43;;;;;;;23.05;3.50;;;;;;;19.80;47.23;100399.59;1683426;84;21288;-58
2023/04/19 13:13:48;;;;;;;31.17;10.00;;;;;;;19.58;47.15;100401.17;1670998;84;21257;-58
2023/04/19 13:17:02;;;;;;;18.87;3.52;;;;;;;19.36;47.13;100397.16;1674171;84;21306;-60
2023/04/19 13:20:35;;;;;;;14.30;3.35;;;;;;;19.17;47.16;100396.85;1664013;85;21331;-62
2023/04/19 13:23:47;;;;;;;19.12;3.52;;;;;;;19.02;47.25;100404.69;1656141;85;21282;-63
2023/04/19 13:26:59;;;;;;;17.70;3.95;;;;;;;18.89;47.21;100401.52;1609059;87;21328;-60
2023/04/19 13:30:08;;;;;;;19.45;4.55;;;;;;;18.82;47.23;100402.67;1641166;85;21214;-58
2023/04/19 13:33:15;;;;;;;25.82;8.30;;;;;;;18.72;47.24;100405.97;1620866;87;21312;-59
2023/04/19 13:36:22;;;;;;;15.48;3.95;;;;;;;18.66;47.27;100412.40;1643168;87;21242;-59
2023/04/19 13:39:28;;;;;;;16.70;3.37;;;;;;;18.64;47.31;100406.25;1640426;87;21623;-58
2023/04/19 13:42:33;;;;;;;20.30;4.53;;;;;;;18.55;47.21;100412.31;1617012;87;21661;-58
2023/04/19 13:45:40;;;;;;;16.05;3.80;;;;;;;18.37;47.11;100419.14;1654655;86;21213;-59
2023/04/19 13:48:48;;;;;;;21.40;5.62;;;;;;;18.20;47.09;100410.55;1653445;85;21220;-59
2023/04/19 13:51:56;;;;;;;19.42;4.03;;;;;;;18.01;47.10;100425.91;1636811;86;21253;-59
2023/04/19 13:55:02;;;;;;;23.15;3.70;;;;;;;17.86;47.17;100426.20;1702161;83;21821;-59
2023/04/19 13:58:09;;;;;;;18.73;4.20;;;;;;;17.73;47.17;100434.05;1701299;83;21241;-58
2023/04/19 14:01:14;;;;;;;21.20;4.50;;;;;;;17.65;47.26;100432.92;1697846;82;21594;-58
2023/04/19 14:04:21;;;;;;;16.75;4.10;;;;;;;17.53;47.29;100436.59;1682807;83;21290;-59
2023/04/19 14:07:30;;;;;;;18.23;3.98;;;;;;;17.45;47.39;100431.30;1674861;84;21668;-58
2023/04/19 14:10:35;;;;;;;23.20;5.33;;;;;;;17.39;47.43;100430.25;1656282;83;21261;-59
2023/04/19 14:13:43;;;;;;;15.35;3.85;;;;;;;17.32;47.42;100428.55;1643553;86;21641;-60
2023/04/19 14:16:50;;;;;;;18.52;3.50;;;;;;;17.27;47.48;100428.34;1652944;85;21615;-60
2023/04/19 14:19:55;;;;;;;23.47;4.47;;;;;;;17.23;47.53;100427.96;1664598;84;21237;-60
2023/04/19 14:23:02;;;;;;;20.55;4.30;;;;;;;17.17;47.48;100432.12;1662555;85;21258;-59
2023/04/19 14:26:08;;;;;;;18.17;4.15;;;;;;;17.02;47.42;100425.98;1618886;87;21630;-59